Time;durP1;ratioP1;P1;durP2;ratioP2;P2;SDS_P1;SDS_P2;PMS_P1;PMS_P2;Temp;Humidity;BMP_temperature;BMP_pressure;BME280_temperature;BME280_humidity;BME280_pressure;Samples;Min_cycle;Max_cycle;Signal;HPM_P1;HPM_P2
2022/08/22 00:00:37;;;;;;;4.30;4.10;;;21.20;46.00;;;;;;20876;6752;120596;-86
2022/08/22 00:03:45;;;;;;;4.30;4.00;;;21.00;46.40;;;;;;20771;6721;276535;-86
2022/08/22 00:06:24;;;;;;;4.55;4.22;;;21.00;46.40;;;;;;19513;7090;352896;-86
2022/08/22 00:09:13;;;;;;;4.10;3.90;;;20.90;46.30;;;;;;19784;7107;118908;-86
2022/08/22 00:11:55;;;;;;;4.67;4.37;;;20.90;46.30;;;;;;20170;6784;281057;-86
2022/08/22 00:14:30;;;;;;;4.47;4.07;;;20.90;46.60;;;;;;20513;6756;275994;-87
2022/08/22 00:17:22;;;;;;;4.50;4.00;;;21.10;46.40;;;;;;20694;6709;292402;-87
2022/08/22 00:20:12;;;;;;;4.10;3.77;;;21.10;46.20;;;;;;20954;6724;117009;-87
2022/08/22 00:22:56;;;;;;;4.40;4.10;;;20.80;46.70;;;;;;20759;6724;277510;-87
2022/08/22 00:25:58;;;;;;;4.20;3.87;;;20.70;46.80;;;;;;20894;6739;116876;-87
2022/08/22 00:28:53;;;;;;;;;;;;;;;;;;;;;
2022/08/22 00:31:32;;;;;;;4.03;3.60;;;20.00;47.90;;;;;;20983;6721;117018;-86
2022/08/22 00:34:38;;;;;;;4.60;4.20;;;19.70;48.40;;;;;;20706;6736;276248;-86
2022/08/22 00:37:16;;;;;;;4.22;3.92;;;19.90;48.80;;;;;;20228;6851;279027;-86
2022/08/22 00:40:01;;;;;;;3.90;3.70;;;20.40;48.40;;;;;;20864;6756;117691;-86
2022/08/22 00:42:43;;;;;;;4.40;4.00;;;20.20;48.40;;;;;;20816;6811;117357;-86
2022/08/22 00:45:35;;;;;;;3.80;3.50;;;19.90;48.90;;;;;;20935;6742;117371;-86
2022/08/22 00:48:31;;;;;;;4.53;4.20;;;19.70;49.20;;;;;;20705;6728;274646;-86
2022/08/22 00:51:46;;;;;;;4.40;3.95;;;19.90;49.30;;;;;;20761;6644;329976;-86
2022/08/22 00:54:42;;;;;;;3.80;3.60;;;20.30;48.70;;;;;;20765;6727;116238;-85
2022/08/22 00:57:41;;;;;;;4.50;4.10;;;20.10;49.00;;;;;;20824;6727;117338;-86
2022/08/22 01:00:24;;;;;;;4.17;3.87;;;19.70;49.40;;;;;;20957;6724;117802;-86
2022/08/22 01:03:23;;;;;;;4.40;4.10;;;19.60;49.60;;;;;;20711;6739;336091;-86
2022/08/22 01:06:32;;;;;;;4.67;3.80;;;19.80;48.70;;;;;;20841;6739;127837;-87
2022/08/22 01:09:40;;;;;;;4.50;4.00;;;19.70;48.80;;;;;;20783;6717;284723;-86
2022/08/22 01:12:16;;;;;;;4.80;4.40;;;20.00;49.40;;;;;;20759;6717;307950;-86
2022/08/22 01:15:01;;;;;;;5.27;3.83;;;20.30;48.10;;;;;;20974;6717;117032;-86
2022/08/22 01:17:50;;;;;;;4.37;3.97;;;20.10;48.30;;;;;;20766;6732;117705;-87
2022/08/22 01:20:38;;;;;;;4.67;4.30;;;19.70;49.00;;;;;;20717;6732;276832;-86
2022/08/22 01:23:50;;;;;;;4.30;3.90;;;19.80;49.00;;;;;;20387;6802;118744;-86
2022/08/22 01:27:02;;;;;;;4.43;4.10;;;19.70;49.20;;;;;;20664;6717;278506;-86
2022/08/22 01:29:53;;;;;;;5.23;4.30;;;19.80;49.10;;;;;;20710;6739;306354;-87
2022/08/22 01:32:55;;;;;;;4.82;4.53;;;20.10;48.70;;;;;;20719;6734;306509;-86
2022/08/22 01:35:34;;;;;;;4.77;4.40;;;20.20;48.10;;;;;;20904;6739;118025;-86
2022/08/22 01:38:13;;;;;;;4.70;4.30;;;19.90;48.60;;;;;;20013;6795;277752;-87
2022/08/22 01:40:53;;;;;;;4.60;4.20;;;19.90;48.70;;;;;;20870;6756;117409;-86
2022/08/22 01:43:45;;;;;;;4.40;4.00;;;19.70;49.00;;;;;;20302;6795;119378;-87
2022/08/22 01:46:34;;;;;;;4.62;4.30;;;19.30;49.50;;;;;;20581;6756;323114;-88
2022/08/22 01:49:25;;;;;;;4.53;4.13;;;19.50;49.60;;;;;;20265;6786;119155;-86
2022/08/22 01:52:04;;;;;;;5.10;4.68;;;19.40;49.80;;;;;;20790;6709;320964;-87
2022/08/22 01:54:50;;;;;;;4.63;4.10;;;19.50;49.90;;;;;;20714;6744;276132;-86
2022/08/22 01:57:25;;;;;;;4.57;4.18;;;19.70;49.10;;;;;;20560;6726;342081;-86
2022/08/22 02:00:07;;;;;;;4.47;4.07;;;20.10;49.10;;;;;;20715;6726;306544;-86
2022/08/22 02:02:52;;;;;;;4.75;4.45;;;20.00;48.80;;;;;;20759;6727;334701;-86
2022/08/22 02:05:37;;;;;;;4.40;4.10;;;20.10;48.20;;;;;;20938;6733;117142;-86
2022/08/22 02:08:16;;;;;;;4.23;3.90;;;19.80;48.70;;;;;;20914;6735;116930;-86
2022/08/22 02:11:04;;;;;;;5.10;4.70;;;19.30;49.40;;;;;;20754;6741;305058;-86
2022/08/22 02:13:43;;;;;;;4.87;4.43;;;19.40;49.60;;;;;;20732;6749;305761;-86
2022/08/22 02:16:25;;;;;;;4.90;4.50;;;19.60;49.20;;;;;;20631;6745;305810;-86
2022/08/22 02:19:08;;;;;;;5.72;4.68;;;19.80;49.00;;;;;;20795;6728;332823;-86
2022/08/22 02:22:04;;;;;;;5.87;4.10;;;19.70;49.00;;;;;;20986;6728;117403;-87
2022/08/22 02:24:43;;;;;;;4.70;4.30;;;19.70;49.00;;;;;;20789;6728;277923;-86
2022/08/22 02:27:32;;;;;;;4.23;3.93;;;19.70;49.10;;;;;;20749;6757;117311;-86
2022/08/22 02:30:08;;;;;;;4.93;4.53;;;19.60;49.50;;;;;;20619;6761;276467;-86
2022/08/22 02:32:50;;;;;;;4.50;4.23;;;19.70;49.20;;;;;;20852;6761;117012;-86
2022/08/22 02:35:39;;;;;;;4.85;4.55;;;19.50;49.30;;;;;;20633;6761;305339;-86
2022/08/22 02:38:24;;;;;;;5.13;4.80;;;19.70;49.20;;;;;;20668;6746;306832;-87
2022/08/22 02:41:23;;;;;;;4.80;4.50;;;19.90;48.60;;;;;;20630;6765;277204;-86
2022/08/22 02:43:58;;;;;;;5.23;4.83;;;20.00;48.50;;;;;;20841;6761;117523;-86
2022/08/22 02:46:41;;;;;;;4.60;4.20;;;19.70;49.00;;;;;;20856;6731;117525;-86
2022/08/22 02:49:30;;;;;;;4.83;4.50;;;19.30;49.60;;;;;;20902;6744;116999;-86
2022/08/22 02:52:08;;;;;;;5.07;4.77;;;19.00;50.20;;;;;;20664;6746;305775;-87
2022/08/22 02:54:44;;;;;;;4.80;4.50;;;19.30;50.50;;;;;;20724;6732;304381;-86
2022/08/22 02:57:36;;;;;;;4.70;4.40;;;19.70;49.90;;;;;;20502;6753;337318;-86
2022/08/22 03:00:21;;;;;;;6.23;4.50;;;19.90;49.30;;;;;;20137;6800;119984;-86
2022/08/22 03:03:03;;;;;;;5.22;4.82;;;19.70;49.50;;;;;;20697;6750;275079;-87
2022/08/22 03:05:39;;;;;;;5.03;4.63;;;19.70;49.60;;;;;;20668;6755;280214;-86
2022/08/22 03:08:24;;;;;;;5.00;4.60;;;19.90;49.50;;;;;;20741;6724;306085;-86
2022/08/22 03:11:17;;;;;;;4.87;4.47;;;20.10;49.20;;;;;;20892;6739;117933;-86
2022/08/22 03:14:02;;;;;;;5.25;4.75;;;19.80;49.50;;;;;;20588;6783;339244;-86
2022/08/22 03:16:44;;;;;;;4.37;4.00;;;19.90;49.50;;;;;;20727;6827;120206;-87
2022/08/22 03:19:26;;;;;;;5.03;4.72;;;19.60;49.70;;;;;;20761;6722;334645;-87
2022/08/22 03:22:05;;;;;;;5.10;4.70;;;19.60;49.60;;;;;;20700;6722;276653;-87
2022/08/22 03:24:54;;;;;;;5.20;4.70;;;19.80;49.30;;;;;;20926;6741;117030;-86
2022/08/22 03:27:39;;;;;;;5.23;4.83;;;19.60;49.60;;;;;;20735;6747;118219;-86
2022/08/22 03:30:15;;;;;;;5.63;5.07;;;19.10;50.10;;;;;;20121;6784;277055;-86
2022/08/22 03:32:58;;;;;;;4.50;4.10;;;19.20;50.30;;;;;;20957;6727;116780;-86
2022/08/22 03:35:45;;;;;;;4.70;4.40;;;19.10;50.50;;;;;;20921;6727;117872;-86
2022/08/22 03:38:30;;;;;;;4.90;4.50;;;18.90;51.00;;;;;;20977;6713;119758;-86
2022/08/22 03:41:26;;;;;;;5.00;4.70;;;18.90;51.40;;;;;;20739;6731;279532;-86
2022/08/22 03:43:55;;;;;;;5.10;4.30;;;18.80;51.30;;;;;;20689;6746;308380;-86
2022/08/22 03:47:04;;;;;;;5.30;3.90;;;19.30;51.50;;;;;;20762;6761;117596;-86
2022/08/22 03:50:04;;;;;;;4.90;4.50;;;19.30;51.30;;;;;;20708;6742;307656;-86
2022/08/22 03:53:09;;;;;;;4.70;4.40;;;19.30;50.90;;;;;;19844;7086;119250;-86
2022/08/22 03:56:08;;;;;;;4.43;4.10;;;19.00;50.90;;;;;;20797;6792;116970;-86
2022/08/22 03:59:11;;;;;;;4.40;4.10;;;18.60;51.40;;;;;;20923;6738;118938;-86
2022/08/22 04:02:18;;;;;;;5.93;4.90;;;18.50;52.50;;;;;;20716;6738;276033;-86
2022/08/22 04:05:18;;;;;;;5.13;4.73;;;18.50;52.20;;;;;;20737;6724;289045;-86
2022/08/22 04:08:17;;;;;;;5.40;4.90;;;18.90;51.10;;;;;;20633;6811;276737;-88
2022/08/22 04:11:15;;;;;;;5.33;4.83;;;19.20;50.50;;;;;;20767;6784;117088;-86
2022/08/22 04:13:58;;;;;;;5.33;4.83;;;18.50;51.60;;;;;;20838;6783;116967;-86
2022/08/22 04:17:14;;;;;;;5.47;4.97;;;18.30;52.20;;;;;;20806;6763;117454;-86
2022/08/22 04:20:13;;;;;;;4.87;4.47;;;18.20;52.10;;;;;;20996;6733;116693;-86
2022/08/22 04:23:18;;;;;;;5.23;4.77;;;18.00;52.50;;;;;;20752;6741;116805;-86
2022/08/22 04:25:58;;;;;;;5.07;4.77;;;17.90;53.00;;;;;;20833;6751;117124;-85
2022/08/22 04:28:33;;;;;;;5.60;5.27;;;17.70;53.10;;;;;;20808;6717;333837;-86
2022/08/22 04:31:10;;;;;;;5.53;4.97;;;18.10;52.90;;;;;;21023;6717;117844;-86
2022/08/22 04:34:05;;;;;;;5.07;4.67;;;18.20;52.70;;;;;;21010;6717;118791;-86
2022/08/22 04:36:44;;;;;;;4.60;4.30;;;18.00;52.60;;;;;;20911;6717;118101;-86
2022/08/22 04:39:22;;;;;;;4.47;4.17;;;17.80;52.70;;;;;;20880;6752;119234;-85
2022/08/22 04:41:57;;;;;;;5.23;4.83;;;17.70;53.00;;;;;;20887;6743;119605;-86
2022/08/22 04:44:34;;;;;;;5.65;5.05;;;18.00;53.60;;;;;;20681;6758;304950;-87
2022/08/22 04:47:29;;;;;;;4.37;4.10;;;18.00;52.90;;;;;;20777;6748;117212;-87
2022/08/22 04:50:14;;;;;;;4.90;4.60;;;18.00;52.70;;;;;;20721;6741;276009;-87
2022/08/22 04:53:17;;;;;;;5.20;4.90;;;18.40;52.50;;;;;;20817;6766;117195;-86
2022/08/22 04:55:55;;;;;;;6.10;5.60;;;18.40;52.50;;;;;;20491;6799;316563;-87
2022/08/22 04:58:40;;;;;;;4.97;4.57;;;18.60;52.40;;;;;;20807;6768;117027;-87
2022/08/22 05:01:26;;;;;;;5.20;4.50;;;18.20;52.70;;;;;;20916;6739;116811;-87
2022/08/22 05:04:02;;;;;;;5.47;5.07;;;18.20;52.70;;;;;;20555;6784;281716;-87
2022/08/22 05:06:38;;;;;;;5.20;4.90;;;18.40;52.70;;;;;;20518;6775;278534;-87
2022/08/22 05:09:13;;;;;;;5.67;4.90;;;18.80;52.50;;;;;;20868;6762;117563;-87
2022/08/22 05:11:48;;;;;;;5.53;5.07;;;18.70;52.40;;;;;;20906;6749;117104;-87
2022/08/22 05:14:38;;;;;;;5.32;5.03;;;18.60;52.50;;;;;;20653;6749;307733;-87
2022/08/22 05:17:14;;;;;;;5.20;4.80;;;18.60;52.50;;;;;;20759;6727;117341;-87
2022/08/22 05:19:49;;;;;;;5.30;4.90;;;18.60;52.60;;;;;;20985;6719;118893;-86
2022/08/22 05:22:27;;;;;;;5.93;4.90;;;18.30;53.70;;;;;;20967;6718;119093;-89
2022/08/22 05:25:02;;;;;;;4.87;4.50;;;18.30;53.30;;;;;;20987;6719;116844;-87
2022/08/22 05:27:38;;;;;;;6.18;5.78;;;18.20;53.40;;;;;;20555;6719;308998;-87
2022/08/22 05:30:21;;;;;;;5.27;4.87;;;18.60;53.10;;;;;;20869;6749;126806;-87
2022/08/22 05:33:22;;;;;;;4.90;4.60;;;18.70;53.00;;;;;;20883;6749;117189;-87
2022/08/22 05:36:02;;;;;;;5.87;5.50;;;18.60;53.20;;;;;;20652;6746;279012;-86
2022/08/22 05:38:36;;;;;;;5.83;5.40;;;18.90;52.50;;;;;;20932;6736;118228;-87
2022/08/22 05:41:12;;;;;;;5.72;5.32;;;19.00;52.40;;;;;;20736;6732;306428;-87
2022/08/22 05:43:47;;;;;;;5.43;5.00;;;19.20;52.00;;;;;;20935;6788;117122;-87
2022/08/22 05:46:37;;;;;;;5.93;5.53;;;19.30;52.30;;;;;;20533;6761;309209;-86
2022/08/22 05:49:18;;;;;;;5.85;5.40;;;19.30;52.10;;;;;;20686;6746;308619;-86
2022/08/22 05:52:01;;;;;;;6.00;5.50;;;19.70;51.60;;;;;;20338;6798;278332;-86
2022/08/22 05:54:40;;;;;;;5.32;5.00;;;20.00;51.00;;;;;;20643;6800;279925;-86
2022/08/22 05:57:21;;;;;;;5.40;5.07;;;20.20;50.60;;;;;;20542;6744;280385;-86
2022/08/22 06:00:11;;;;;;;5.67;5.27;;;20.30;50.20;;;;;;20671;6755;305990;-87
2022/08/22 06:02:49;;;;;;;5.90;5.50;;;20.40;49.90;;;;;;20662;6753;309029;-86
2022/08/22 06:05:25;;;;;;;4.70;4.40;;;20.50;50.00;;;;;;20830;6814;117353;-86
2022/08/22 06:08:17;;;;;;;5.55;5.15;;;20.20;50.40;;;;;;20720;6732;305274;-86
2022/08/22 06:10:54;;;;;;;5.55;5.15;;;20.10;50.10;;;;;;20403;6800;279009;-87
2022/08/22 06:13:33;;;;;;;5.90;5.50;;;20.30;49.60;;;;;;20728;6733;306441;-86
2022/08/22 06:16:12;;;;;;;5.93;5.43;;;20.60;49.60;;;;;;20610;6797;307669;-86
2022/08/22 06:18:48;;;;;;;5.10;4.70;;;20.60;49.60;;;;;;20914;6741;116982;-86
2022/08/22 06:21:27;;;;;;;5.60;5.20;;;20.30;50.00;;;;;;20703;6741;310520;-87
2022/08/22 06:24:02;;;;;;;5.53;5.13;;;20.30;49.60;;;;;;20628;6759;307660;-86
2022/08/22 06:26:38;;;;;;;5.43;4.93;;;20.50;49.50;;;;;;20815;6741;117644;-87
2022/08/22 06:29:13;;;;;;;4.80;4.50;;;20.30;49.80;;;;;;20921;6741;117040;-88
2022/08/22 06:31:49;;;;;;;5.50;5.07;;;20.00;50.40;;;;;;20919;6741;118311;-86
2022/08/22 06:34:25;;;;;;;5.35;4.95;;;19.80;50.90;;;;;;20661;6750;307937;-87
2022/08/22 06:37:03;;;;;;;4.97;4.67;;;20.10;50.60;;;;;;20803;6735;117125;-87
2022/08/22 06:39:39;;;;;;;5.47;5.07;;;20.30;50.50;;;;;;20655;6755;337463;-87
2022/08/22 06:42:18;;;;;;;5.67;5.20;;;20.60;50.10;;;;;;20823;6758;120246;-87
2022/08/22 06:45:09;;;;;;;4.67;4.27;;;20.60;50.00;;;;;;20869;6755;117136;-87
2022/08/22 06:47:45;;;;;;;5.73;4.90;;;20.60;50.30;;;;;;20482;6811;278757;-87
2022/08/22 06:50:24;;;;;;;6.73;4.77;;;21.00;49.80;;;;;;20683;6740;307040;-87
2022/08/22 06:53:06;;;;;;;4.93;4.53;;;21.50;48.50;;;;;;20704;6741;306300;-87
2022/08/22 06:55:41;;;;;;;5.07;4.65;;;21.90;46.90;;;;;;20677;6740;308085;-87
2022/08/22 06:58:18;;;;;;;4.87;4.57;;;22.40;46.30;;;;;;20911;6736;116839;-87
2022/08/22 07:00:54;;;;;;;5.67;4.20;;;22.40;46.90;;;;;;20936;6735;116856;-87
2022/08/22 07:03:33;;;;;;;5.18;4.78;;;22.30;47.50;;;;;;20725;6735;278809;-87
2022/08/22 07:06:15;;;;;;;4.97;4.57;;;23.00;45.50;;;;;;20644;6735;307620;-87
2022/08/22 07:08:51;;;;;;;4.62;4.22;;;23.10;46.00;;;;;;20717;6736;306500;-87
2022/08/22 07:11:29;;;;;;;3.80;3.60;;;23.50;44.80;;;;;;20939;6736;117795;-88
2022/08/22 07:14:05;;;;;;;4.35;4.05;;;23.50;45.20;;;;;;20682;6743;293424;-87
2022/08/22 07:16:44;;;;;;;4.03;3.80;;;23.60;43.10;;;;;;20554;6755;338849;-87
2022/08/22 07:19:23;;;;;;;4.17;3.80;;;24.00;43.00;;;;;;20963;6726;117057;-87
2022/08/22 07:21:58;;;;;;;7.07;4.10;;;23.90;43.90;;;;;;20732;6726;306567;-88
2022/08/22 07:49:21;;;;;;;4.70;4.27;;;26.60;41.00;;;;;;21143;6502;291433;-86
2022/08/22 07:51:51;;;;;;;4.60;4.10;;;26.90;40.10;;;;;;20730;6792;306010;-87
2022/08/22 07:54:16;;;;;;;3.60;3.40;;;26.90;40.10;;;;;;20919;6786;119019;-88
2022/08/22 08:20:52;;;;;;;4.53;4.07;;;28.40;37.30;;;;;;21496;6504;88381;-90
2022/08/22 08:23:18;;;;;;;4.25;3.90;;;28.30;38.00;;;;;;20750;6779;336798;-87
2022/08/22 08:25:57;;;;;;;3.80;3.50;;;28.40;37.60;;;;;;20671;6793;278533;-87
2022/08/22 08:28:33;;;;;;;4.00;3.40;;;28.70;37.40;;;;;;20326;6848;280986;-87
2022/08/22 08:31:08;;;;;;;3.87;3.57;;;28.90;38.00;;;;;;20692;6862;117264;-87
2022/08/22 08:33:35;;;;;;;3.80;3.50;;;28.80;38.00;;;;;;20488;6865;279958;-87
2022/08/22 08:36:08;;;;;;;4.22;3.85;;;28.90;37.20;;;;;;20437;6863;309847;-89
2022/08/22 08:38:47;;;;;;;6.03;3.60;;;29.10;36.80;;;;;;20432;6874;308678;-87
2022/08/22 08:41:35;;;;;;;6.77;3.70;;;29.30;36.20;;;;;;20618;6874;116415;-87
2022/08/22 08:44:07;;;;;;;6.03;3.50;;;29.30;36.70;;;;;;20620;6865;120089;-87
2022/08/22 08:46:53;;;;;;;3.67;3.40;;;28.90;37.40;;;;;;20680;6874;117581;-87
2022/08/22 08:49:25;;;;;;;4.25;3.70;;;28.90;37.40;;;;;;20449;6877;308936;-88
2022/08/22 08:52:25;;;;;;;4.87;3.73;;;29.10;36.50;;;;;;20461;6862;279052;-88
2022/08/22 08:55:17;;;;;;;3.87;3.40;;;29.40;35.80;;;;;;20688;6865;117673;-87
2022/08/22 08:58:06;;;;;;;3.80;3.50;;;29.30;36.60;;;;;;20693;6862;118281;-87
2022/08/22 09:00:44;;;;;;;4.20;3.90;;;29.10;37.00;;;;;;20477;6862;309091;-87
2022/08/22 09:03:33;;;;;;;3.80;3.50;;;29.30;37.20;;;;;;20696;6862;117850;-88
2022/08/22 09:06:05;;;;;;;3.60;3.40;;;29.30;36.90;;;;;;20687;6862;117566;-88
2022/08/22 09:08:37;;;;;;;4.43;3.60;;;29.20;36.80;;;;;;20441;6862;337604;-87
2022/08/22 09:11:24;;;;;;;3.33;3.13;;;29.30;35.50;;;;;;20706;6861;119597;-88
2022/08/22 09:13:56;;;;;;;3.30;3.10;;;29.40;35.80;;;;;;20691;6861;118421;-88
2022/08/22 09:16:25;;;;;;;3.60;3.20;;;29.30;36.30;;;;;;20692;6861;117586;-88
2022/08/22 09:19:14;;;;;;;3.80;3.50;;;29.30;36.10;;;;;;20683;6861;117434;-88
2022/08/22 09:21:50;;;;;;;3.33;3.13;;;29.20;35.10;;;;;;20531;6861;117577;-88
2022/08/22 09:24:51;;;;;;;3.70;3.40;;;29.20;35.00;;;;;;20479;6861;298725;-88
2022/08/22 09:27:47;;;;;;;3.45;3.20;;;30.00;32.80;;;;;;20472;6861;314104;-88
2022/08/22 09:30:14;;;;;;;3.57;3.27;;;30.00;32.80;;;;;;20662;6860;117499;-88
2022/08/22 09:32:46;;;;;;;3.53;3.23;;;29.80;34.00;;;;;;20710;6860;117579;-88
2022/08/22 09:35:35;;;;;;;6.40;3.70;;;29.80;33.20;;;;;;20503;6861;300271;-89
2022/08/22 09:38:31;;;;;;;3.50;3.07;;;29.90;33.80;;;;;;20699;6861;117692;-87
2022/08/22 09:41:10;;;;;;;3.63;3.33;;;29.90;33.20;;;;;;20503;6861;323964;-89
2022/08/22 09:43:49;;;;;;;4.07;3.70;;;30.20;31.60;;;;;;20495;6861;278699;-88
2022/08/22 09:46:14;;;;;;;3.93;3.63;;;30.60;31.10;;;;;;20647;6861;117774;-88
2022/08/22 09:48:42;;;;;;;3.33;3.10;;;30.60;31.70;;;;;;20704;6861;118220;-88
2022/08/22 09:51:18;;;;;;;3.57;3.27;;;30.30;32.40;;;;;;20697;6861;117953;-88
2022/08/22 09:54:07;;;;;;;5.73;3.57;;;30.20;32.80;;;;;;20373;6861;120838;-88
2022/08/22 09:56:56;;;;;;;4.03;3.28;;;30.10;33.30;;;;;;20494;6861;341747;-88
2022/08/22 09:59:45;;;;;;;4.43;3.30;;;30.40;30.60;;;;;;20494;6864;279966;-87
2022/08/22 10:02:31;;;;;;;3.77;3.10;;;30.80;29.30;;;;;;20677;6864;118120;-89
2022/08/22 10:05:24;;;;;;;3.57;3.27;;;30.90;30.20;;;;;;20479;6861;279704;-88
2022/08/22 10:08:14;;;;;;;3.20;3.00;;;30.90;29.70;;;;;;20719;6861;120621;-88
2022/08/22 10:10:46;;;;;;;3.70;2.97;;;30.90;30.00;;;;;;20709;6861;118390;-88
2022/08/22 10:13:36;;;;;;;3.58;3.20;;;30.90;29.60;;;;;;20505;6861;326699;-88
2022/08/22 10:16:18;;;;;;;3.90;3.50;;;30.90;29.40;;;;;;20485;6861;290856;-88
2022/08/22 10:19:00;;;;;;;3.45;3.15;;;31.20;29.10;;;;;;20506;6861;337806;-88
2022/08/22 10:21:45;;;;;;;5.60;3.40;;;31.40;29.40;;;;;;20714;6861;117514;-88
2022/08/22 10:24:18;;;;;;;3.50;3.20;;;31.40;29.30;;;;;;20427;6861;293800;-88
2022/08/22 10:26:47;;;;;;;3.73;3.10;;;31.30;29.00;;;;;;20713;6861;117754;-87
2022/08/22 10:29:50;;;;;;;3.40;3.13;;;31.30;29.30;;;;;;20704;6861;117356;-88
2022/08/22 10:32:38;;;;;;;4.40;3.30;;;31.00;29.60;;;;;;20688;6861;119443;-89
2022/08/22 10:35:12;;;;;;;3.10;2.90;;;30.70;29.70;;;;;;20711;6861;117369;-90
2022/08/22 10:37:40;;;;;;;5.03;3.17;;;30.70;29.70;;;;;;20667;6861;117372;-88
2022/08/22 10:40:10;;;;;;;3.90;3.20;;;31.00;29.20;;;;;;20438;6861;279949;-87
2022/08/22 10:42:36;;;;;;;3.42;3.22;;;30.90;29.10;;;;;;20479;6860;338979;-88
2022/08/22 10:45:28;;;;;;;3.57;3.23;;;31.40;28.70;;;;;;20692;6861;117488;-88
2022/08/22 10:47:53;;;;;;;3.80;3.40;;;31.50;29.30;;;;;;20694;6861;117494;-88
2022/08/22 10:50:20;;;;;;;3.90;3.50;;;31.40;29.40;;;;;;20693;6861;117457;-89
2022/08/22 10:52:44;;;;;;;3.30;3.10;;;31.30;29.40;;;;;;20683;6861;117824;-88
2022/08/22 10:55:18;;;;;;;3.73;3.43;;;31.20;29.30;;;;;;20484;6861;308353;-87
2022/08/22 10:58:03;;;;;;;3.37;3.08;;;31.40;27.80;;;;;;20466;6861;310784;-88
2022/08/22 11:00:45;;;;;;;4.93;3.10;;;31.70;27.10;;;;;;20710;6861;117544;-88
2022/08/22 11:03:23;;;;;;;3.17;2.97;;;31.80;27.50;;;;;;20708;6861;117438;-89
2022/08/22 11:05:46;;;;;;;3.53;3.13;;;31.60;27.80;;;;;;20680;6861;117723;-88
2022/08/22 11:08:15;;;;;;;3.27;2.80;;;31.40;28.10;;;;;;20690;6861;117607;-88
2022/08/22 11:11:04;;;;;;;3.40;3.20;;;31.30;28.20;;;;;;20490;6861;310773;-88
2022/08/22 11:13:39;;;;;;;3.67;3.40;;;31.40;26.50;;;;;;20719;6861;117795;-89
2022/08/22 11:16:45;;;;;;;3.22;3.03;;;31.50;26.20;;;;;;20466;6861;335085;-89
2022/08/22 11:19:17;;;;;;;3.47;3.20;;;31.50;26.20;;;;;;20711;6861;119795;-92
2022/08/22 11:21:49;;;;;;;4.53;3.30;;;31.50;26.80;;;;;;20461;6861;307905;-88
2022/08/22 11:24:16;;;;;;;3.10;2.90;;;31.60;25.90;;;;;;20470;6861;338235;-88
2022/08/22 11:26:46;;;;;;;3.40;3.20;;;31.80;26.40;;;;;;20655;6861;118008;-88
2022/08/22 11:29:37;;;;;;;3.20;3.00;;;31.90;27.30;;;;;;20686;6861;117803;-88
2022/08/22 11:32:28;;;;;;;3.47;3.10;;;31.80;27.20;;;;;;20477;6861;278899;-88
2022/08/22 11:35:01;;;;;;;3.65;3.20;;;32.00;26.70;;;;;;19426;7223;318325;-88
2022/08/22 11:37:45;;;;;;;3.70;3.13;;;32.30;26.20;;;;;;19394;7229;321906;-88
2022/08/22 11:40:31;;;;;;;3.58;3.28;;;32.50;25.20;;;;;;19653;6877;307882;-88
2022/08/22 11:42:59;;;;;;;3.45;3.10;;;32.50;26.70;;;;;;20452;6877;338161;-88
2022/08/22 11:45:26;;;;;;;3.10;2.80;;;32.50;25.80;;;;;;20697;6865;117488;-87
2022/08/22 11:47:52;;;;;;;3.80;3.20;;;32.30;26.00;;;;;;20486;6862;307717;-88
2022/08/22 11:50:18;;;;;;;3.27;3.00;;;32.30;26.00;;;;;;20364;6862;311224;-88
2022/08/22 11:52:43;;;;;;;3.07;2.83;;;32.50;25.30;;;;;;20671;6862;117503;-88
2022/08/22 11:55:33;;;;;;;3.23;2.90;;;32.40;25.60;;;;;;20720;6859;117198;-88
2022/08/22 11:58:12;;;;;;;3.00;2.80;;;32.30;25.80;;;;;;20684;6864;118544;-89
2022/08/22 12:00:48;;;;;;;3.53;3.23;;;32.00;25.80;;;;;;20480;6847;117465;-88
2022/08/22 12:03:33;;;;;;;3.07;2.83;;;31.80;26.00;;;;;;20616;6862;117843;-88
2022/08/22 12:06:03;;;;;;;5.73;2.80;;;31.70;26.50;;;;;;20661;6862;130162;-89
2022/08/22 12:08:32;;;;;;;3.40;3.20;;;31.70;26.80;;;;;;20568;6862;118344;-88
2022/08/22 12:11:24;;;;;;;4.03;2.80;;;31.70;26.80;;;;;;20755;6847;117615;-88
2022/08/22 12:14:10;;;;;;;3.30;3.10;;;31.60;26.90;;;;;;20488;6862;280506;-88
2022/08/22 12:16:38;;;;;;;4.20;3.07;;;31.80;25.10;;;;;;20463;6862;278594;-87
2022/08/22 12:19:24;;;;;;;3.10;2.90;;;32.50;24.80;;;;;;20459;6862;310464;-88
2022/08/22 12:22:10;;;;;;;3.87;2.60;;;32.50;24.80;;;;;;20695;6862;117902;-87
2022/08/22 12:24:37;;;;;;;3.27;2.87;;;32.50;25.10;;;;;;20641;6862;121628;-88
2022/08/22 12:27:19;;;;;;;3.30;3.10;;;32.40;25.50;;;;;;20480;6862;334049;-88
2022/08/22 12:30:07;;;;;;;3.20;3.00;;;32.30;25.00;;;;;;20496;6862;337514;-88
2022/08/22 12:32:47;;;;;;;3.15;2.87;;;32.50;25.20;;;;;;20328;6862;306425;-88
2022/08/22 12:35:21;;;;;;;2.93;2.70;;;32.60;25.20;;;;;;20674;6862;117342;-88
2022/08/22 12:38:06;;;;;;;3.73;3.43;;;32.40;25.80;;;;;;20687;6862;117805;-88
2022/08/22 12:40:56;;;;;;;3.60;3.40;;;32.00;26.80;;;;;;20505;6862;309006;-88
2022/08/22 12:43:32;;;;;;;4.37;3.60;;;32.10;26.60;;;;;;20502;6862;308003;-89
2022/08/22 12:46:15;;;;;;;3.50;3.30;;;32.00;26.90;;;;;;20468;6862;337830;-87
2022/08/22 12:48:50;;;;;;;3.50;3.30;;;32.20;27.50;;;;;;20704;6862;116836;-88
2022/08/22 12:51:31;;;;;;;3.30;3.10;;;32.00;27.20;;;;;;20694;6862;119473;-89
2022/08/22 12:53:59;;;;;;;3.33;3.10;;;31.70;28.40;;;;;;20698;6862;117978;-88
2022/08/22 12:56:58;;;;;;;3.47;3.20;;;31.50;28.20;;;;;;20463;6862;310527;-87
2022/08/22 12:59:27;;;;;;;3.43;3.23;;;31.60;27.10;;;;;;20711;6862;117509;-87
2022/08/22 13:01:52;;;;;;;3.20;2.90;;;31.40;27.50;;;;;;20699;6862;117554;-88
2022/08/22 13:04:22;;;;;;;5.10;3.20;;;31.20;27.80;;;;;;20682;6862;117808;-87
2022/08/22 13:06:48;;;;;;;2.97;2.87;;;31.00;27.50;;;;;;20704;6860;118095;-87
2022/08/22 13:09:18;;;;;;;3.22;3.03;;;30.90;27.60;;;;;;20486;6861;340789;-90
2022/08/22 13:11:42;;;;;;;3.40;3.17;;;31.00;27.90;;;;;;20509;6862;282630;-87
2022/08/22 13:14:07;;;;;;;3.43;3.17;;;31.30;27.30;;;;;;20740;6861;116913;-87
2022/08/22 13:16:33;;;;;;;3.80;3.50;;;31.30;27.10;;;;;;20756;6862;120163;-87
2022/08/22 13:19:02;;;;;;;3.40;3.20;;;31.10;27.00;;;;;;20965;6653;276168;-87
2022/08/22 13:21:37;;;;;;;3.40;3.20;;;31.10;27.10;;;;;;20803;6733;333198;-87
2022/08/22 13:24:16;;;;;;;3.33;3.03;;;31.30;26.80;;;;;;20692;6732;305756;-87
2022/08/22 13:26:56;;;;;;;3.97;3.67;;;31.50;26.90;;;;;;20376;6782;301162;-87
2022/08/22 13:29:41;;;;;;;3.70;3.50;;;31.60;27.90;;;;;;20760;6652;336064;-88
2022/08/22 13:32:30;;;;;;;3.67;3.37;;;31.70;27.60;;;;;;20937;6624;117324;-87
2022/08/22 13:35:26;;;;;;;4.13;3.23;;;31.40;27.60;;;;;;21339;6624;68592;-91
2022/08/22 13:38:22;;;;;;;3.47;3.27;;;31.00;28.10;;;;;;20669;6638;118017;-92
2022/08/22 13:55:00;;;;;;;3.73;3.43;;;30.20;29.50;;;;;;21406;6531;89247;-87
2022/08/22 13:57:48;;;;;;;3.50;3.30;;;30.00;29.40;;;;;;20685;6823;117978;-88
2022/08/22 14:00:34;;;;;;;3.30;3.20;;;30.00;29.40;;;;;;20645;6856;117518;-87
2022/08/22 14:03:13;;;;;;;3.40;3.20;;;29.90;29.40;;;;;;20705;6856;118554;-86
2022/08/22 14:05:53;;;;;;;3.47;3.27;;;29.80;29.50;;;;;;20364;6899;283617;-86
2022/08/22 14:08:19;;;;;;;3.27;3.00;;;30.00;28.20;;;;;;20413;6872;281481;-86
2022/08/22 14:11:07;;;;;;;3.10;2.90;;;30.30;28.50;;;;;;20653;6872;117704;-87
2022/08/22 14:13:45;;;;;;;3.72;3.50;;;30.40;28.50;;;;;;20228;6888;311986;-87
2022/08/22 14:16:24;;;;;;;3.20;3.10;;;30.50;28.10;;;;;;20583;6889;118354;-89
2022/08/22 14:18:50;;;;;;;3.40;3.10;;;30.50;28.20;;;;;;20470;6866;308371;-87
2022/08/22 14:21:33;;;;;;;3.83;3.53;;;30.50;28.20;;;;;;20688;6866;117364;-89
2022/08/22 14:24:04;;;;;;;3.67;3.30;;;30.50;28.00;;;;;;20496;6855;338318;-88
2022/08/22 14:26:30;;;;;;;3.50;3.30;;;30.60;27.70;;;;;;20480;6863;308789;-87
2022/08/22 14:28:56;;;;;;;3.40;3.20;;;30.70;28.80;;;;;;20667;6863;117551;-88
2022/08/22 14:31:23;;;;;;;3.03;2.80;;;30.70;28.30;;;;;;20679;6872;120892;-87
2022/08/22 14:33:58;;;;;;;3.40;3.10;;;30.30;28.60;;;;;;20642;6884;119832;-87
2022/08/22 14:36:40;;;;;;;3.57;3.30;;;30.20;28.60;;;;;;20667;6866;118101;-88
2022/08/22 14:39:10;;;;;;;3.07;2.87;;;30.10;28.60;;;;;;20688;6866;117726;-88
2022/08/22 14:41:42;;;;;;;3.10;2.90;;;29.90;28.50;;;;;;20688;6855;117461;-87
2022/08/22 14:44:21;;;;;;;3.60;3.30;;;30.00;28.50;;;;;;20437;6855;308989;-88
2022/08/22 14:46:51;;;;;;;3.60;3.40;;;30.00;28.50;;;;;;20486;6863;323389;-87
2022/08/22 14:49:33;;;;;;;3.40;3.20;;;30.40;28.50;;;;;;20464;6872;282833;-88
2022/08/22 14:51:59;;;;;;;3.23;2.93;;;30.60;28.20;;;;;;20579;6884;118025;-88
2022/08/22 14:54:25;;;;;;;3.27;3.07;;;30.50;28.70;;;;;;20584;6873;121181;-87